Time;durP1;ratioP1;P1;durP2;ratioP2;P2;SDS_P1;SDS_P2;PMS_P1;PMS_P2;Temp;Humidity;BMP_temperature;BMP_pressure;BME280_temperature;BME280_humidity;BME280_pressure;Samples;Min_cycle;Max_cycle;Signal;HPM_P1;HPM_P2
2022/10/11 00:00:25;;;;;;;13.05;2.72;;;7.20;99.90;;;;;;4919140;29;20031;-88
2022/10/11 00:02:51;;;;;;;13.45;3.22;;;7.20;99.90;;;;;;4957559;28;20049;-87
2022/10/11 00:05:17;;;;;;;13.73;2.92;;;7.60;99.90;;;;;;4938991;29;20050;-87
2022/10/11 00:07:42;;;;;;;11.23;2.80;;;7.10;99.90;;;;;;4955278;28;20042;-87
2022/10/11 00:10:09;;;;;;;13.45;3.17;;;7.10;99.90;;;;;;4957401;28;20046;-87
2022/10/11 00:12:35;;;;;;;19.52;3.70;;;7.10;99.90;;;;;;4956773;28;20058;-87
2022/10/11 00:15:02;;;;;;;13.93;3.10;;;7.10;99.90;;;;;;4957958;28;20105;-87
2022/10/11 00:17:28;;;;;;;11.02;2.53;;;7.10;99.90;;;;;;4925113;28;20045;-87
2022/10/11 00:19:54;;;;;;;16.67;2.95;;;7.10;99.90;;;;;;4954181;28;20039;-87
2022/10/11 00:22:20;;;;;;;11.10;2.47;;;7.10;99.90;;;;;;4933829;28;20122;-87
2022/10/11 00:24:45;;;;;;;12.43;2.72;;;7.00;99.90;;;;;;4922224;29;20039;-87
2022/10/11 00:27:11;;;;;;;11.95;2.45;;;7.10;99.90;;;;;;4925071;28;20047;-87
2022/10/11 00:29:38;;;;;;;12.32;2.63;;;7.10;99.90;;;;;;4941020;28;20057;-87
2022/10/11 00:32:04;;;;;;;11.38;2.38;;;7.30;99.90;;;;;;4940798;28;20057;-87
2022/10/11 00:34:31;;;;;;;13.77;2.78;;;7.10;99.90;;;;;;4957059;28;20042;-87
2022/10/11 00:36:56;;;;;;;10.80;2.53;;;7.00;99.90;;;;;;4937930;29;20106;-87
2022/10/11 00:39:22;;;;;;;12.25;2.60;;;7.00;99.90;;;;;;4936904;29;20083;-87
2022/10/11 00:41:48;;;;;;;12.20;2.55;;;7.00;99.90;;;;;;4932950;28;20046;-87
2022/10/11 00:44:20;;;;;;;10.75;2.55;;;7.00;99.90;;;;;;4925772;28;20126;-87
2022/10/11 00:46:55;;;;;;;13.55;2.70;;;7.00;99.90;;;;;;4972996;28;20057;-86
2022/10/11 00:49:28;;;;;;;12.40;2.72;;;7.00;99.90;;;;;;4946511;28;20047;-87
2022/10/11 00:51:59;;;;;;;16.40;2.92;;;7.00;99.90;;;;;;4947285;29;20043;-87
2022/10/11 00:54:29;;;;;;;11.55;2.60;;;7.00;99.90;;;;;;4950618;28;20082;-87
2022/10/11 00:57:03;;;;;;;12.23;2.60;;;6.90;99.90;;;;;;4960328;28;20376;-87
2022/10/11 00:59:38;;;;;;;13.73;2.72;;;6.90;99.90;;;;;;4972890;28;20119;-87
2022/10/11 01:02:05;;;;;;;15.02;3.10;;;6.90;99.90;;;;;;4956390;28;20038;-87
2022/10/11 01:04:32;;;;;;;15.38;2.83;;;7.20;99.90;;;;;;4956587;28;20049;-87
2022/10/11 01:06:59;;;;;;;16.48;2.92;;;6.90;99.90;;;;;;4957345;28;20042;-87
2022/10/11 01:09:25;;;;;;;13.90;3.00;;;6.90;99.90;;;;;;4921871;28;20039;-87
2022/10/11 01:11:54;;;;;;;14.75;2.70;;;6.90;99.90;;;;;;4947396;28;20035;-87
2022/10/11 01:14:35;;;;;;;16.05;2.92;;;6.90;99.90;;;;;;4946498;28;20078;-87
2022/10/11 01:17:09;;;;;;;15.60;3.10;;;6.80;99.90;;;;;;4959827;28;20042;-87
2022/10/11 01:20:13;;;;;;;13.00;2.72;;;6.80;99.90;;;;;;4959581;28;20126;-87
2022/10/11 01:22:56;;;;;;;13.30;2.72;;;6.80;99.90;;;;;;4975645;28;20201;-87
2022/10/11 01:25:35;;;;;;;12.75;2.90;;;6.80;99.90;;;;;;4964821;28;20038;-87
2022/10/11 01:28:14;;;;;;;15.35;2.97;;;6.80;99.90;;;;;;4957798;28;20544;-87
2022/10/11 01:30:42;;;;;;;13.88;2.80;;;6.70;99.90;;;;;;4963874;28;20055;-87
2022/10/11 01:33:27;;;;;;;12.27;2.78;;;6.70;99.90;;;;;;4946192;28;20050;-87
2022/10/11 01:36:06;;;;;;;12.50;2.70;;;6.70;99.90;;;;;;4977022;28;20050;-87
2022/10/11 01:39:11;;;;;;;17.13;2.83;;;6.70;99.90;;;;;;4962116;28;20042;-87
2022/10/11 01:41:45;;;;;;;12.13;2.95;;;6.70;99.90;;;;;;4946975;28;20050;-87
2022/10/11 01:44:12;;;;;;;13.05;2.70;;;6.70;99.90;;;;;;4963404;28;20049;-87
2022/10/11 01:46:38;;;;;;;10.43;2.22;;;6.60;99.90;;;;;;4946168;28;20038;-87
2022/10/11 01:49:04;;;;;;;10.85;2.40;;;6.60;99.90;;;;;;4947502;28;20100;-87
2022/10/11 01:51:46;;;;;;;9.25;2.20;;;6.60;99.90;;;;;;4947568;28;20038;-87
2022/10/11 01:54:17;;;;;;;11.32;2.40;;;6.50;99.90;;;;;;4960132;28;20039;-87
2022/10/11 01:56:55;;;;;;;12.45;2.35;;;6.50;99.90;;;;;;4956783;28;20400;-87
2022/10/11 01:59:35;;;;;;;12.05;2.75;;;6.90;99.90;;;;;;4966957;28;20125;-87
2022/10/11 02:02:06;;;;;;;12.15;2.80;;;6.50;99.90;;;;;;4962368;28;20038;-88
2022/10/11 02:04:54;;;;;;;11.65;2.60;;;6.50;99.90;;;;;;4963412;28;20042;-87
2022/10/11 02:07:47;;;;;;;8.48;2.13;;;6.40;99.90;;;;;;4962765;28;20047;-87
2022/10/11 02:10:23;;;;;;;11.00;2.35;;;6.40;99.90;;;;;;4975841;28;20046;-87
2022/10/11 02:13:00;;;;;;;10.10;2.13;;;6.40;99.90;;;;;;4956710;28;20043;-87
2022/10/11 02:15:29;;;;;;;10.55;2.60;;;6.50;99.90;;;;;;4956515;28;20107;-88
2022/10/11 02:17:58;;;;;;;10.35;2.50;;;6.40;99.90;;;;;;4962883;28;20425;-87
2022/10/11 02:20:27;;;;;;;12.82;2.70;;;6.80;99.90;;;;;;4962678;28;20045;-87
2022/10/11 02:23:02;;;;;;;10.45;2.50;;;6.50;99.90;;;;;;4978745;28;20473;-87
2022/10/11 02:25:31;;;;;;;9.52;2.40;;;6.30;99.90;;;;;;4962745;28;20046;-87
2022/10/11 02:28:00;;;;;;;10.85;2.40;;;6.30;99.90;;;;;;4958894;28;20082;-87
2022/10/11 02:30:26;;;;;;;10.23;2.30;;;6.40;99.90;;;;;;4969656;28;20053;-87
2022/10/11 02:32:54;;;;;;;13.27;2.85;;;7.00;99.90;;;;;;4962162;28;20042;-87
2022/10/11 02:35:25;;;;;;;8.90;2.35;;;6.30;99.90;;;;;;4959342;28;20077;-87
2022/10/11 02:38:01;;;;;;;13.93;2.45;;;6.80;99.90;;;;;;4962487;28;20406;-87
2022/10/11 02:40:39;;;;;;;10.60;2.40;;;6.40;99.90;;;;;;4962478;28;20046;-87
2022/10/11 02:43:35;;;;;;;13.05;2.65;;;6.20;99.90;;;;;;4960467;28;20134;-87
2022/10/11 02:46:02;;;;;;;9.35;2.20;;;6.20;99.90;;;;;;4962258;28;20520;-87
2022/10/11 02:48:29;;;;;;;9.88;2.10;;;6.20;99.90;;;;;;4955742;28;20039;-87
2022/10/11 02:50:58;;;;;;;11.55;2.78;;;6.30;99.90;;;;;;4946687;28;20041;-87
2022/10/11 02:53:25;;;;;;;9.35;2.30;;;7.00;99.90;;;;;;4962335;28;20070;-88
2022/10/11 02:55:53;;;;;;;8.43;2.00;;;6.20;99.90;;;;;;4946382;28;20069;-87
2022/10/11 02:58:18;;;;;;;10.63;2.17;;;6.80;99.90;;;;;;4942562;28;20049;-87
2022/10/11 03:00:44;;;;;;;10.18;2.40;;;6.20;99.90;;;;;;4960086;28;20046;-88
2022/10/11 03:03:10;;;;;;;15.73;2.78;;;6.20;99.90;;;;;;4946135;28;20402;-87
2022/10/11 03:05:39;;;;;;;12.43;2.90;;;6.20;99.90;;;;;;4945955;28;20068;-87
2022/10/11 03:08:07;;;;;;;13.38;2.78;;;6.20;99.90;;;;;;4930952;28;20117;-87
2022/10/11 03:10:34;;;;;;;9.05;2.20;;;6.20;99.90;;;;;;4961700;28;20061;-87
2022/10/11 03:13:00;;;;;;;11.82;2.50;;;6.30;99.90;;;;;;4945966;28;20085;-87
2022/10/11 03:15:26;;;;;;;14.68;2.72;;;6.20;99.90;;;;;;4955370;28;20042;-87
2022/10/11 03:17:51;;;;;;;10.63;2.50;;;6.20;99.90;;;;;;4944603;28;20061;-87
2022/10/11 03:20:17;;;;;;;8.88;2.45;;;6.10;99.90;;;;;;4953352;28;20140;-87
2022/10/11 03:22:43;;;;;;;12.15;2.55;;;6.10;99.90;;;;;;4961466;28;20038;-87
2022/10/11 03:25:08;;;;;;;10.13;2.22;;;6.30;99.90;;;;;;4946282;28;20379;-88
2022/10/11 03:27:34;;;;;;;9.38;2.40;;;6.10;99.90;;;;;;4943222;28;20043;-87
2022/10/11 03:30:00;;;;;;;10.43;2.30;;;6.10;99.90;;;;;;4961946;28;20045;-87
2022/10/11 03:32:26;;;;;;;12.75;2.40;;;6.10;99.90;;;;;;4961266;28;20093;-87
2022/10/11 03:34:52;;;;;;;12.63;2.55;;;6.10;99.90;;;;;;4940280;28;20038;-87
2022/10/11 03:37:17;;;;;;;11.85;2.70;;;6.10;99.90;;;;;;4937335;28;20046;-87
2022/10/11 03:39:44;;;;;;;12.38;2.55;;;6.10;99.90;;;;;;4945247;28;20066;-87
2022/10/11 03:42:10;;;;;;;10.35;2.53;;;6.10;99.90;;;;;;4945186;28;20069;-87
2022/10/11 03:44:37;;;;;;;10.77;2.30;;;6.00;99.90;;;;;;4961237;28;20045;-87
2022/10/11 03:47:04;;;;;;;10.20;2.10;;;6.00;99.90;;;;;;4941929;28;20046;-87
2022/10/11 03:49:29;;;;;;;9.27;2.20;;;6.00;99.90;;;;;;4952109;28;20485;-88
2022/10/11 03:51:55;;;;;;;10.20;2.30;;;6.70;99.90;;;;;;4929076;28;20129;-87
2022/10/11 03:54:21;;;;;;;10.32;2.40;;;6.30;99.90;;;;;;4946046;28;20042;-87
2022/10/11 03:56:47;;;;;;;8.80;1.92;;;6.30;99.90;;;;;;4944582;28;20078;-87
2022/10/11 03:59:12;;;;;;;13.27;3.17;;;6.00;99.90;;;;;;4926095;28;20030;-87
2022/10/11 04:01:38;;;;;;;14.75;2.90;;;6.00;99.90;;;;;;4920557;28;20042;-87
2022/10/11 04:04:04;;;;;;;11.75;2.60;;;6.70;99.90;;;;;;4961232;28;20077;-87
2022/10/11 04:06:30;;;;;;;12.75;2.88;;;5.90;99.90;;;;;;4957705;28;20050;-87
2022/10/11 04:08:56;;;;;;;11.85;2.60;;;6.10;99.90;;;;;;4955028;28;20063;-87
2022/10/11 04:11:22;;;;;;;13.30;2.90;;;6.00;99.90;;;;;;4961030;28;20121;-87
2022/10/11 04:13:48;;;;;;;9.63;2.20;;;5.90;99.90;;;;;;4992556;28;20517;-88
2022/10/11 04:16:14;;;;;;;9.90;2.17;;;6.00;99.90;;;;;;4956907;28;20402;-87
2022/10/11 04:18:39;;;;;;;11.70;2.33;;;6.00;99.90;;;;;;4960815;28;20096;-87
2022/10/11 04:21:06;;;;;;;12.65;2.50;;;5.90;99.90;;;;;;4944530;28;20441;-87
2022/10/11 04:23:32;;;;;;;10.18;2.47;;;6.30;99.90;;;;;;4944935;28;20568;-87
2022/10/11 04:25:58;;;;;;;10.13;2.30;;;5.90;99.90;;;;;;4947124;28;20078;-87
2022/10/11 04:28:24;;;;;;;13.60;3.05;;;5.90;99.90;;;;;;4960132;28;20034;-87
2022/10/11 04:30:50;;;;;;;10.65;2.45;;;5.90;99.90;;;;;;4944187;28;20064;-87
2022/10/11 04:33:16;;;;;;;13.70;2.72;;;6.20;99.90;;;;;;4963258;28;20054;-87
2022/10/11 04:35:42;;;;;;;12.50;3.00;;;5.90;99.90;;;;;;4976385;28;20039;-87
2022/10/11 04:38:07;;;;;;;10.02;2.70;;;6.00;99.90;;;;;;4954810;28;20061;-87
2022/10/11 04:40:33;;;;;;;11.68;2.40;;;6.20;99.90;;;;;;4927489;28;20473;-87
2022/10/11 04:42:59;;;;;;;12.40;2.70;;;6.00;99.90;;;;;;4930923;28;20409;-87
2022/10/11 04:45:25;;;;;;;13.65;2.85;;;6.00;99.90;;;;;;4966119;28;20045;-88
2022/10/11 04:47:51;;;;;;;11.07;2.60;;;6.00;99.90;;;;;;4927818;28;20089;-87
2022/10/11 04:50:17;;;;;;;13.82;2.78;;;6.10;99.90;;;;;;4975171;28;20089;-87
2022/10/11 04:52:43;;;;;;;12.40;2.58;;;6.40;99.90;;;;;;4928157;28;20117;-87
2022/10/11 04:55:10;;;;;;;11.68;2.80;;;6.30;99.90;;;;;;4932022;28;20526;-87
2022/10/11 04:57:36;;;;;;;11.07;2.78;;;5.90;99.90;;;;;;4931268;28;20074;-87
2022/10/11 05:00:05;;;;;;;14.60;2.90;;;6.00;99.90;;;;;;4923567;28;20487;-87
2022/10/11 05:02:31;;;;;;;16.58;3.00;;;6.00;99.90;;;;;;4939728;28;20038;-87
2022/10/11 05:04:57;;;;;;;11.45;2.78;;;6.00;99.90;;;;;;4924343;28;20042;-87
2022/10/11 05:07:23;;;;;;;13.02;2.92;;;6.00;99.90;;;;;;4949435;28;20092;-87
2022/10/11 05:09:48;;;;;;;8.98;2.45;;;6.00;99.90;;;;;;4927370;28;20493;-87
2022/10/11 05:12:14;;;;;;;10.57;2.67;;;5.90;99.90;;;;;;4941638;28;20070;-87
2022/10/11 05:14:40;;;;;;;10.20;2.53;;;6.00;99.90;;;;;;4948023;28;20073;-87
2022/10/11 05:17:05;;;;;;;12.50;3.00;;;6.10;99.90;;;;;;4944372;28;20089;-87
2022/10/11 05:19:31;;;;;;;14.45;2.97;;;5.80;99.90;;;;;;4947127;28;20061;-87
2022/10/11 05:21:57;;;;;;;12.48;2.80;;;5.80;99.90;;;;;;4939574;28;20592;-87
2022/10/11 05:24:23;;;;;;;9.07;2.80;;;5.80;99.90;;;;;;4939879;28;20126;-87
2022/10/11 05:26:48;;;;;;;11.52;2.92;;;5.80;99.90;;;;;;4923127;28;20035;-87
2022/10/11 05:29:14;;;;;;;12.35;3.30;;;6.00;99.90;;;;;;4928929;28;20047;-87
2022/10/11 05:31:40;;;;;;;11.25;2.65;;;5.80;99.90;;;;;;4939985;28;20031;-87
2022/10/11 05:34:06;;;;;;;11.23;3.05;;;6.40;99.90;;;;;;4956602;28;20596;-87
2022/10/11 05:36:32;;;;;;;9.20;3.38;;;5.90;99.90;;;;;;4947646;28;20034;-87
2022/10/11 05:38:57;;;;;;;10.13;3.10;;;5.90;99.90;;;;;;4945169;28;20414;-87
2022/10/11 05:41:23;;;;;;;10.27;3.35;;;6.00;99.90;;;;;;4946969;28;20112;-87
2022/10/11 05:43:49;;;;;;;9.30;3.38;;;5.80;99.90;;;;;;4947629;28;20042;-87
2022/10/11 05:46:15;;;;;;;11.73;4.00;;;5.80;99.90;;;;;;4945067;28;20050;-87
2022/10/11 05:48:41;;;;;;;13.57;4.13;;;5.70;99.90;;;;;;4962912;28;20035;-87
2022/10/11 05:51:09;;;;;;;15.45;4.03;;;5.80;99.90;;;;;;4969425;28;20525;-87
2022/10/11 05:53:36;;;;;;;13.35;4.10;;;5.80;99.90;;;;;;4948273;28;20134;-88
2022/10/11 05:56:01;;;;;;;10.43;3.25;;;5.80;99.90;;;;;;4951923;28;20445;-87
2022/10/11 05:58:27;;;;;;;13.98;3.78;;;5.80;99.90;;;;;;4960267;28;20034;-87
2022/10/11 06:00:55;;;;;;;14.30;4.18;;;5.70;99.90;;;;;;4936480;28;20062;-87
2022/10/11 06:03:21;;;;;;;9.27;3.60;;;5.80;99.90;;;;;;4938458;28;20081;-87
2022/10/11 06:05:48;;;;;;;11.13;3.40;;;5.80;99.90;;;;;;4956741;28;20037;-87
2022/10/11 06:08:14;;;;;;;12.07;3.80;;;5.80;99.90;;;;;;4962402;28;20041;-87
2022/10/11 06:10:40;;;;;;;10.77;3.95;;;5.80;99.90;;;;;;4959898;28;20084;-87
2022/10/11 06:13:07;;;;;;;13.95;4.10;;;5.80;99.90;;;;;;4962186;28;20046;-87
2022/10/11 06:15:33;;;;;;;14.05;4.30;;;5.80;99.90;;;;;;4978517;28;20045;-88
2022/10/11 06:17:59;;;;;;;14.98;5.10;;;5.90;99.90;;;;;;4946962;28;20061;-87
2022/10/11 06:20:25;;;;;;;13.77;4.43;;;5.90;99.90;;;;;;4946278;28;20486;-87
2022/10/11 06:22:51;;;;;;;12.38;3.90;;;6.00;99.90;;;;;;4959337;28;20471;-87
2022/10/11 06:25:17;;;;;;;15.43;4.72;;;6.00;99.90;;;;;;4939038;28;20078;-88
2022/10/11 06:27:42;;;;;;;13.30;4.70;;;6.00;99.90;;;;;;4960378;28;20117;-87
2022/10/11 06:30:09;;;;;;;11.23;4.20;;;6.30;99.90;;;;;;4922224;28;20035;-87
2022/10/11 06:32:34;;;;;;;16.42;4.40;;;6.00;99.90;;;;;;4943372;28;20096;-87
2022/10/11 06:35:02;;;;;;;12.32;4.18;;;6.10;99.90;;;;;;4938106;28;20035;-87
2022/10/11 06:37:28;;;;;;;18.83;5.63;;;6.10;99.90;;;;;;4942810;28;20042;-87
2022/10/11 06:39:54;;;;;;;14.30;5.47;;;6.10;99.90;;;;;;4958747;28;20082;-87
2022/10/11 06:42:20;;;;;;;15.43;4.68;;;6.20;99.90;;;;;;4958901;28;20105;-86
2022/10/11 06:44:45;;;;;;;18.00;6.03;;;6.20;99.90;;;;;;4953504;28;20046;-87
2022/10/11 06:47:11;;;;;;;13.77;5.55;;;6.20;99.90;;;;;;4929251;28;20038;-87
2022/10/11 06:49:37;;;;;;;18.83;6.60;;;6.30;99.90;;;;;;4925853;28;20035;-87
2022/10/11 06:52:03;;;;;;;13.60;5.13;;;6.30;99.90;;;;;;4926800;28;20039;-87
2022/10/11 06:54:28;;;;;;;13.07;4.88;;;6.30;99.90;;;;;;4943631;28;20445;-87
2022/10/11 06:56:54;;;;;;;12.20;4.40;;;6.30;99.90;;;;;;4934896;28;20408;-87
2022/10/11 06:59:20;;;;;;;12.93;4.90;;;6.40;99.90;;;;;;4940101;28;20070;-87
2022/10/11 07:01:46;;;;;;;14.13;4.90;;;6.50;99.90;;;;;;4931548;28;20128;-88
2022/10/11 07:04:11;;;;;;;13.30;4.65;;;6.50;99.90;;;;;;4923560;28;20042;-87
2022/10/11 07:06:39;;;;;;;17.25;4.93;;;6.60;99.90;;;;;;4937612;28;20093;-87
2022/10/11 07:09:06;;;;;;;11.02;4.55;;;6.70;99.90;;;;;;4952092;28;20077;-88
2022/10/11 07:11:33;;;;;;;11.88;5.10;;;6.70;99.90;;;;;;4953398;28;20034;-87
2022/10/11 07:14:06;;;;;;;13.52;5.10;;;6.80;99.90;;;;;;4948781;28;20061;-87
2022/10/11 07:16:33;;;;;;;12.93;4.53;;;6.80;99.90;;;;;;4949835;28;20038;-88
2022/10/11 07:19:00;;;;;;;13.30;4.85;;;6.80;99.90;;;;;;4950139;28;20066;-88
2022/10/11 07:21:26;;;;;;;19.23;5.45;;;6.90;99.90;;;;;;4956861;28;20050;-87
2022/10/11 07:23:52;;;;;;;15.63;4.93;;;6.90;99.90;;;;;;4933843;28;20034;-87
2022/10/11 07:26:18;;;;;;;13.40;4.47;;;6.90;99.90;;;;;;4948779;28;20126;-88
2022/10/11 07:28:45;;;;;;;12.40;4.82;;;6.90;99.90;;;;;;4954492;28;20050;-87
2022/10/11 07:31:14;;;;;;;12.25;5.40;;;7.00;99.90;;;;;;4957683;28;20132;-87
2022/10/11 07:33:40;;;;;;;14.18;4.80;;;7.00;99.90;;;;;;4948528;28;20037;-87
2022/10/11 07:36:06;;;;;;;15.40;4.55;;;6.90;99.90;;;;;;4945311;28;20038;-87
2022/10/11 07:38:32;;;;;;;13.93;4.80;;;7.00;99.90;;;;;;4974631;28;20039;-88
2022/10/11 07:40:58;;;;;;;10.98;4.53;;;7.10;99.90;;;;;;4944305;28;20050;-87
2022/10/11 07:43:24;;;;;;;12.77;4.20;;;7.10;99.90;;;;;;4956833;28;20050;-88
2022/10/11 07:45:55;;;;;;;10.98;4.40;;;7.70;99.90;;;;;;4938861;28;20394;-87
2022/10/11 07:48:22;;;;;;;12.32;4.20;;;7.20;99.90;;;;;;4950739;28;20081;-87
2022/10/11 07:50:48;;;;;;;11.98;4.40;;;7.20;99.90;;;;;;4945370;28;20038;-87
2022/10/11 07:53:14;;;;;;;14.18;4.05;;;7.30;99.90;;;;;;4962615;28;20042;-87
2022/10/11 07:55:39;;;;;;;12.82;4.13;;;7.30;99.90;;;;;;4942177;28;20035;-87
2022/10/11 07:58:10;;;;;;;12.52;4.57;;;7.70;99.90;;;;;;4922486;28;20046;-87
2022/10/11 08:00:36;;;;;;;10.30;4.28;;;7.40;99.90;;;;;;4960527;28;20034;-88
2022/10/11 08:03:06;;;;;;;16.88;4.78;;;7.40;99.90;;;;;;4961232;28;20096;-88
2022/10/11 08:05:32;;;;;;;15.35;4.68;;;7.40;99.90;;;;;;4976848;28;20050;-87
2022/10/11 08:07:58;;;;;;;12.25;4.18;;;7.50;99.90;;;;;;4957829;28;20078;-87
2022/10/11 08:10:25;;;;;;;13.63;4.10;;;7.60;99.90;;;;;;4940920;28;20502;-87
2022/10/11 08:12:52;;;;;;;10.60;3.95;;;7.80;99.90;;;;;;4947165;28;20046;-87
2022/10/11 08:15:19;;;;;;;12.82;4.18;;;7.60;99.90;;;;;;4970114;28;20493;-87
2022/10/11 08:17:45;;;;;;;16.17;4.00;;;7.70;99.90;;;;;;4973605;28;20463;-87
2022/10/11 08:20:12;;;;;;;15.88;4.53;;;7.70;99.90;;;;;;4948951;28;20050;-87
2022/10/11 08:22:38;;;;;;;14.68;4.50;;;7.80;99.90;;;;;;4969695;28;20053;-87
2022/10/11 08:25:04;;;;;;;13.40;4.40;;;7.90;99.90;;;;;;4956035;28;20034;-87
2022/10/11 08:27:30;;;;;;;13.27;4.15;;;8.00;99.90;;;;;;4950703;28;20076;-87
2022/10/11 08:29:56;;;;;;;15.13;4.18;;;8.10;99.90;;;;;;4964951;28;20822;-88
2022/10/11 08:32:22;;;;;;;15.10;4.15;;;8.20;99.90;;;;;;4949057;28;20121;-87
2022/10/11 08:34:48;;;;;;;12.90;4.50;;;8.20;99.90;;;;;;4957340;28;20034;-88
2022/10/11 08:37:13;;;;;;;15.50;4.97;;;8.30;99.90;;;;;;4955941;28;20026;-87
2022/10/11 08:39:39;;;;;;;17.33;4.60;;;8.60;99.90;;;;;;4983454;28;20099;-88
2022/10/11 08:42:28;;;;;;;14.65;4.18;;;8.60;99.90;;;;;;4964759;28;20037;-87
2022/10/11 08:44:58;;;;;;;15.02;4.10;;;8.70;99.90;;;;;;4959845;28;20146;-87
2022/10/11 08:47:59;;;;;;;13.60;4.30;;;9.20;99.90;;;;;;4982143;28;20037;-87
2022/10/11 08:50:24;;;;;;;20.50;5.07;;;9.10;99.90;;;;;;4953316;28;20062;-87
2022/10/11 08:53:03;;;;;;;14.82;4.90;;;9.40;99.90;;;;;;4969045;28;20034;-87
2022/10/11 08:55:49;;;;;;;15.00;4.38;;;9.60;99.90;;;;;;4961775;28;20035;-87
2022/10/11 08:58:19;;;;;;;13.65;3.75;;;10.00;99.90;;;;;;4971657;28;20073;-87
2022/10/11 09:00:49;;;;;;;12.23;3.58;;;10.10;99.90;;;;;;4963097;28;20141;-89
2022/10/11 09:03:37;;;;;;;13.20;3.50;;;10.30;99.90;;;;;;4980002;28;20100;-88
2022/10/11 09:06:16;;;;;;;12.98;3.50;;;10.40;99.90;;;;;;4967753;28;20100;-87
2022/10/11 09:09:01;;;;;;;12.07;3.33;;;10.60;99.90;;;;;;4969950;28;20104;-87
2022/10/11 09:11:33;;;;;;;12.20;3.30;;;10.80;99.90;;;;;;4983141;28;20057;-87
2022/10/11 09:14:07;;;;;;;14.73;3.47;;;11.00;99.90;;;;;;4979233;28;20054;-87
2022/10/11 09:16:33;;;;;;;11.70;3.17;;;11.10;99.90;;;;;;4975191;28;20085;-88
2022/10/11 09:19:20;;;;;;;12.98;3.10;;;11.30;99.90;;;;;;4965320;28;20509;-87
2022/10/11 09:22:27;;;;;;;11.82;3.20;;;11.40;99.90;;;;;;4968658;28;20382;-87
2022/10/11 09:25:11;;;;;;;13.57;3.03;;;11.70;99.90;;;;;;4964051;28;20034;-87
2022/10/11 09:27:48;;;;;;;11.98;3.10;;;11.90;99.90;;;;;;4964736;28;20097;-88
2022/10/11 09:30:18;;;;;;;14.25;3.22;;;12.00;99.90;;;;;;4976998;28;20130;-88
2022/10/11 09:33:16;;;;;;;15.57;2.92;;;12.10;99.90;;;;;;4978499;28;20031;-88
2022/10/11 09:35:49;;;;;;;11.57;2.97;;;12.20;99.90;;;;;;4963398;28;20181;-87
2022/10/11 09:38:15;;;;;;;11.98;2.75;;;12.30;99.90;;;;;;4961626;28;20043;-88
2022/10/11 09:40:50;;;;;;;11.25;2.88;;;12.40;99.90;;;;;;4963069;28;20039;-88
2022/10/11 09:43:16;;;;;;;13.15;2.85;;;12.50;99.90;;;;;;4976228;28;20038;-88
2022/10/11 09:45:44;;;;;;;11.70;2.53;;;12.60;99.90;;;;;;4942757;28;20043;-88
2022/10/11 09:48:15;;;;;;;12.48;2.80;;;12.80;99.90;;;;;;4950970;28;20038;-88
2022/10/11 09:50:41;;;;;;;11.60;2.70;;;12.80;99.90;;;;;;4970449;28;20045;-88
2022/10/11 09:53:06;;;;;;;11.95;2.65;;;12.90;99.90;;;;;;4984701;28;20135;-87
2022/10/11 09:55:53;;;;;;;12.73;2.38;;;13.10;99.90;;;;;;4974164;28;20073;-88
2022/10/11 09:58:25;;;;;;;13.27;2.95;;;13.20;99.90;;;;;;4984533;28;20545;-88
2022/10/11 10:01:01;;;;;;;12.00;2.60;;;13.30;99.90;;;;;;4983237;28;20038;-88
2022/10/11 10:03:32;;;;;;;13.30;2.72;;;13.50;99.90;;;;;;4988480;28;20097;-88
2022/10/11 10:06:24;;;;;;;11.40;2.58;;;13.60;99.90;;;;;;4970084;28;20057;-88
2022/10/11 10:08:50;;;;;;;;;;;13.80;99.90;;;;;;4969941;28;20039;-88
2022/10/11 10:11:18;;;;;;;15.55;2.90;;;14.00;99.90;;;;;;4965292;28;19983;-88
2022/10/11 10:13:55;;;;;;;13.18;2.50;;;14.10;99.90;;;;;;4982277;28;20053;-88
2022/10/11 10:16:32;;;;;;;9.57;2.50;;;14.20;99.90;;;;;;4964121;28;20045;-89
2022/10/11 10:19:15;;;;;;;12.50;2.70;;;14.30;99.90;;;;;;4978332;28;20066;-88
2022/10/11 10:21:46;;;;;;;13.43;2.80;;;14.40;99.90;;;;;;4967479;28;20050;-88
2022/10/11 10:24:27;;;;;;;12.23;2.80;;;14.60;99.90;;;;;;4966797;28;20043;-88
2022/10/11 10:27:27;;;;;;;12.50;2.53;;;14.70;99.90;;;;;;4987142;28;20416;-88
2022/10/11 10:30:14;;;;;;;12.90;2.70;;;14.70;99.90;;;;;;4945553;28;20397;-88
2022/10/11 10:33:01;;;;;;;13.00;2.45;;;14.70;99.90;;;;;;4964910;28;20124;-88
2022/10/11 10:35:31;;;;;;;9.48;2.30;;;14.80;99.90;;;;;;4962669;28;20501;-88
2022/10/11 10:38:05;;;;;;;13.55;2.55;;;14.80;99.90;;;;;;4967042;28;20037;-88
2022/10/11 10:40:53;;;;;;;12.95;2.90;;;14.90;99.90;;;;;;4965995;28;20034;-88
2022/10/11 10:43:22;;;;;;;10.05;2.67;;;15.00;99.90;;;;;;4967263;28;20042;-88
2022/10/11 10:46:07;;;;;;;14.02;2.63;;;15.00;99.90;;;;;;4985502;28;20053;-89
2022/10/11 10:48:59;;;;;;;11.93;2.65;;;15.10;99.90;;;;;;4982097;28;20042;-88
2022/10/11 10:51:56;;;;;;;10.77;2.30;;;15.20;99.90;;;;;;4966245;28;20069;-89
2022/10/11 10:54:47;;;;;;;10.30;2.25;;;15.20;99.90;;;;;;4911510;28;20101;-89
2022/10/11 10:57:24;;;;;;;12.52;2.47;;;15.20;99.90;;;;;;4961146;28;20034;-88
2022/10/11 11:00:11;;;;;;;11.35;2.70;;;15.30;99.90;;;;;;4981604;28;20048;-90
2022/10/11 11:02:56;;;;;;;8.85;2.38;;;15.30;99.90;;;;;;4973701;28;20512;-89
2022/10/11 11:05:39;;;;;;;12.88;2.60;;;15.20;99.90;;;;;;4961584;28;20049;-89
2022/10/11 11:08:34;;;;;;;12.38;2.55;;;15.20;99.90;;;;;;4969756;28;20038;-89
2022/10/11 11:11:12;;;;;;;13.88;2.60;;;15.10;99.90;;;;;;4918903;28;20050;-88
2022/10/11 11:13:46;;;;;;;12.55;2.63;;;15.20;99.90;;;;;;4963057;28;20081;-89
2022/10/11 11:16:18;;;;;;;12.57;2.47;;;15.30;99.90;;;;;;4963048;28;20042;-88
2022/10/11 11:18:53;;;;;;;11.23;2.65;;;15.50;99.90;;;;;;4964758;28;20039;-89
2022/10/11 11:21:28;;;;;;;10.70;2.45;;;15.60;99.90;;;;;;4959190;28;20050;-89
2022/10/11 11:24:19;;;;;;;12.15;2.78;;;15.70;99.90;;;;;;4967102;28;20039;-89
2022/10/11 11:26:47;;;;;;;11.18;2.40;;;15.70;99.90;;;;;;4981272;28;20043;-89
2022/10/11 11:29:22;;;;;;;12.70;2.42;;;15.90;99.90;;;;;;4966128;28;20034;-89
2022/10/11 11:32:12;;;;;;;10.75;2.60;;;15.90;99.90;;;;;;4982365;28;20049;-89
2022/10/11 11:34:46;;;;;;;12.13;2.42;;;15.80;99.90;;;;;;4977623;28;20114;-88
2022/10/11 11:37:30;;;;;;;12.57;2.40;;;15.80;99.90;;;;;;4963770;28;20489;-89
2022/10/11 11:40:11;;;;;;;11.40;2.50;;;15.80;99.90;;;;;;4977349;28;20038;-89
2022/10/11 11:42:52;;;;;;;15.43;2.85;;;15.90;99.90;;;;;;4964155;28;20497;-89
2022/10/11 11:45:29;;;;;;;12.93;2.60;;;16.00;99.90;;;;;;4981540;28;20047;-89
2022/10/11 11:48:04;;;;;;;14.57;2.58;;;15.90;99.90;;;;;;4976351;28;20392;-89
2022/10/11 11:50:42;;;;;;;13.63;2.40;;;15.90;99.90;;;;;;4980887;28;20089;-89
2022/10/11 11:53:22;;;;;;;12.15;2.50;;;16.00;99.90;;;;;;4978384;28;20042;-89
2022/10/11 11:56:18;;;;;;;12.35;2.75;;;15.90;99.90;;;;;;4978728;28;20038;-88
2022/10/11 11:58:58;;;;;;;11.80;2.60;;;16.10;99.90;;;;;;4960405;28;20041;-89
2022/10/11 12:01:30;;;;;;;12.35;2.33;;;16.20;99.90;;;;;;4966134;28;20502;-89
2022/10/11 12:04:03;;;;;;;11.07;2.28;;;16.20;99.90;;;;;;4959419;28;20038;-89
2022/10/11 12:06:31;;;;;;;10.32;2.53;;;16.20;99.90;;;;;;4978287;28;20047;-89
2022/10/11 12:09:20;;;;;;;10.82;2.40;;;16.20;99.90;;;;;;4962238;28;20046;-89
2022/10/11 12:11:57;;;;;;;15.27;2.85;;;16.20;99.90;;;;;;4976128;28;20054;-89
2022/10/11 12:14:32;;;;;;;11.27;2.55;;;16.20;99.90;;;;;;4959463;28;20066;-89
2022/10/11 12:17:09;;;;;;;12.73;2.17;;;16.30;99.90;;;;;;4965136;28;20106;-89
2022/10/11 12:19:37;;;;;;;13.18;2.70;;;16.40;99.90;;;;;;4980388;28;20034;-88
2022/10/11 12:22:19;;;;;;;12.07;2.45;;;16.50;99.90;;;;;;4964372;28;20079;-89
2022/10/11 12:25:20;;;;;;;11.20;2.33;;;16.60;99.90;;;;;;4965305;28;20038;-88
2022/10/11 12:28:00;;;;;;;10.50;2.20;;;16.50;99.90;;;;;;4961116;28;20151;-89
2022/10/11 12:30:47;;;;;;;13.10;2.42;;;16.30;99.90;;;;;;4963768;28;20398;-89
2022/10/11 12:33:13;;;;;;;11.55;2.33;;;16.00;99.90;;;;;;4964805;28;20039;-89
2022/10/11 12:35:48;;;;;;;10.15;2.40;;;16.00;99.90;;;;;;4976323;28;20429;-90
2022/10/11 12:38:38;;;;;;;10.50;2.55;;;16.00;99.90;;;;;;4968880;28;20166;-89
2022/10/11 12:41:13;;;;;;;12.70;2.40;;;16.00;99.90;;;;;;4953763;28;20043;-89
2022/10/11 12:43:48;;;;;;;11.05;2.50;;;16.00;99.90;;;;;;4973037;28;20043;-89
2022/10/11 12:46:29;;;;;;;15.43;2.55;;;16.10;99.90;;;;;;4959451;28;20039;-88
2022/10/11 12:49:14;;;;;;;11.23;2.35;;;16.00;99.90;;;;;;4959461;28;20528;-89
2022/10/11 12:52:15;;;;;;;12.23;2.53;;;16.00;99.90;;;;;;4955590;28;20043;-89
2022/10/11 12:55:26;;;;;;;11.07;2.33;;;16.10;99.90;;;;;;4973000;28;20043;-89
2022/10/11 12:58:07;;;;;;;12.18;2.40;;;16.10;99.90;;;;;;4969628;28;20494;-89
2022/10/11 13:00:49;;;;;;;12.38;2.38;;;16.10;99.90;;;;;;4954577;28;20037;-89
2022/10/11 13:03:27;;;;;;;;;;;16.00;99.90;;;;;;4972925;28;20042;-89
2022/10/11 13:05:55;;;;;;;10.90;2.25;;;16.00;99.90;;;;;;4971758;28;20387;-88
2022/10/11 13:08:28;;;;;;;12.45;2.38;;;16.00;99.90;;;;;;4936839;28;20047;-89